createdAt,value
2022-08-25T00:00:20.344Z,24.99
2022-08-25T00:02:56.226Z,25.02
2022-08-25T00:05:29.140Z,25.03
2022-08-25T00:07:59.992Z,25.02
2022-08-25T00:10:28.614Z,24.97
2022-08-25T00:12:57.967Z,24.95
2022-08-25T00:15:26.467Z,24.96
2022-08-25T00:17:54.460Z,24.92
2022-08-25T00:20:22.980Z,24.89
2022-08-25T00:22:50.971Z,24.80
2022-08-25T00:25:19.654Z,24.63
2022-08-25T00:27:48.650Z,24.59
2022-08-25T00:30:19.191Z,24.50
2022-08-25T00:32:55.302Z,24.40
2022-08-25T00:35:27.222Z,24.35
2022-08-25T00:37:55.646Z,24.44
2022-08-25T00:40:25.257Z,24.48
2022-08-25T00:42:54.476Z,24.48
2022-08-25T00:45:24.410Z,24.40
2022-08-25T00:47:52.321Z,24.40
2022-08-25T00:50:20.887Z,24.28
2022-08-25T00:52:51.627Z,24.31
2022-08-25T00:55:22.992Z,24.33
2022-08-25T00:57:55.641Z,24.32
2022-08-25T01:00:27.407Z,24.29
2022-08-25T01:02:56.736Z,24.31
2022-08-25T01:05:25.614Z,24.25
2022-08-25T01:07:53.890Z,24.09
2022-08-25T01:10:27.096Z,23.96
2022-08-25T01:12:57.775Z,23.78
2022-08-25T01:15:27.687Z,23.76
2022-08-25T01:17:58.365Z,23.59
2022-08-25T01:20:31.546Z,23.46
2022-08-25T01:23:01.306Z,23.32
2022-08-25T01:25:41.177Z,23.19
2022-08-25T01:28:09.378Z,22.95
2022-08-25T01:30:38.096Z,22.94
2022-08-25T01:33:06.184Z,23.05
2022-08-25T01:35:34.349Z,22.92
2022-08-25T01:38:05.097Z,22.90
2022-08-25T01:40:33.635Z,22.98
2022-08-25T01:43:09.614Z,22.86
2022-08-25T01:45:39.017Z,22.70
2022-08-25T01:48:07.865Z,22.69
2022-08-25T01:50:36.546Z,22.63
2022-08-25T01:53:14.591Z,22.59
2022-08-25T01:55:52.984Z,22.42
2022-08-25T01:58:25.297Z,22.58
2022-08-25T02:00:56.638Z,22.63
2022-08-25T02:03:25.691Z,22.47
2022-08-25T02:05:54.828Z,22.39
2022-08-25T02:08:24.748Z,22.27
2022-08-25T02:10:53.790Z,22.43
2022-08-25T02:13:26.733Z,22.58
2022-08-25T02:16:00.223Z,22.66
2022-08-25T02:18:28.076Z,22.67
2022-08-25T02:20:56.142Z,22.53
2022-08-25T02:23:25.514Z,22.51
2022-08-25T02:25:53.444Z,22.32
2022-08-25T02:28:21.389Z,22.23
2022-08-25T02:30:49.879Z,22.18
2022-08-25T02:33:17.842Z,21.99
2022-08-25T02:35:46.973Z,21.95
2022-08-25T02:38:15.390Z,21.91
2022-08-25T02:40:44.761Z,21.96
2022-08-25T02:43:12.678Z,22.01
2022-08-25T02:45:41.623Z,22.11
2022-08-25T02:48:09.619Z,21.78
2022-08-25T02:50:37.515Z,21.69
2022-08-25T02:53:05.461Z,21.47
2022-08-25T02:55:33.677Z,21.57
2022-08-25T02:58:04.051Z,21.52
2022-08-25T03:00:32.158Z,21.39
2022-08-25T03:03:00.321Z,21.39
2022-08-25T03:05:28.635Z,21.36
2022-08-25T03:07:56.628Z,21.42
2022-08-25T03:10:25.949Z,21.51
2022-08-25T03:12:53.906Z,21.46
2022-08-25T03:15:25.663Z,21.43
2022-08-25T03:17:53.652Z,21.36
2022-08-25T03:20:21.882Z,21.25
2022-08-25T03:22:50.267Z,21.33
2022-08-25T03:25:35.957Z,21.22
2022-08-25T03:28:04.904Z,21.55
2022-08-25T03:30:34.413Z,21.75
2022-08-25T03:33:02.446Z,21.50
2022-08-25T03:35:30.951Z,21.58
2022-08-25T03:37:59.527Z,21.61
2022-08-25T03:40:28.119Z,21.69
2022-08-25T03:42:56.859Z,21.84
2022-08-25T03:45:25.880Z,21.91
2022-08-25T03:47:55.205Z,21.85
2022-08-25T03:50:24.129Z,21.77
2022-08-25T03:52:53.795Z,21.89
2022-08-25T03:55:23.310Z,21.94
2022-08-25T03:57:51.690Z,21.84
2022-08-25T04:00:20.862Z,21.64
2022-08-25T04:02:48.975Z,21.70
2022-08-25T04:05:18.333Z,21.75
2022-08-25T04:07:47.188Z,21.74
2022-08-25T04:10:15.223Z,21.75
2022-08-25T04:12:43.201Z,21.64
2022-08-25T04:15:12.142Z,21.70
2022-08-25T04:17:41.546Z,21.40
2022-08-25T04:20:10.856Z,21.58
2022-08-25T04:22:44.954Z,21.40
2022-08-25T04:25:14.095Z,21.47
2022-08-25T04:27:42.192Z,21.46
2022-08-25T04:30:11.475Z,21.33
2022-08-25T04:32:39.437Z,21.37
2022-08-25T04:35:08.127Z,21.23
2022-08-25T04:37:36.210Z,21.10
2022-08-25T04:40:06.354Z,21.24
2022-08-25T04:42:34.505Z,21.10
2022-08-25T04:45:04.112Z,21.20
2022-08-25T04:47:32.228Z,21.17
2022-08-25T04:50:00.158Z,21.08
2022-08-25T04:52:28.124Z,21.02
2022-08-25T04:54:56.454Z,21.01
2022-08-25T04:57:25.752Z,21.17
2022-08-25T04:59:54.975Z,21.16
2022-08-25T05:02:23.686Z,21.23
2022-08-25T05:04:51.770Z,21.25
2022-08-25T05:07:19.733Z,21.27
2022-08-25T05:09:47.664Z,21.19
2022-08-25T05:12:15.641Z,21.29
2022-08-25T05:14:45.443Z,21.48
2022-08-25T05:17:14.067Z,21.45
2022-08-25T05:19:42.798Z,21.68
2022-08-25T05:22:10.692Z,21.86
2022-08-25T05:24:38.643Z,21.89
2022-08-25T05:27:06.762Z,21.98
2022-08-25T05:29:34.747Z,22.05
2022-08-25T05:32:04.719Z,22.12
2022-08-25T05:34:32.674Z,22.08
2022-08-25T05:37:03.313Z,22.20
2022-08-25T05:39:32.444Z,22.48
2022-08-25T05:42:00.436Z,22.50
2022-08-25T05:44:28.466Z,22.72
2022-08-25T05:46:56.424Z,22.95
2022-08-25T05:49:25.770Z,23.12
2022-08-25T05:51:53.695Z,23.25
2022-08-25T05:54:21.528Z,23.36
2022-08-25T05:56:49.474Z,23.44
2022-08-25T05:59:17.407Z,23.52
2022-08-25T06:02:02.782Z,23.72
2022-08-25T06:04:32.502Z,23.96
2022-08-25T06:07:00.690Z,24.13
2022-08-25T06:09:28.690Z,24.16
2022-08-25T06:11:56.803Z,24.37
2022-08-25T06:14:25.455Z,24.45
2022-08-25T06:16:53.527Z,24.61
2022-08-25T06:19:23.359Z,24.79
2022-08-25T06:21:56.283Z,24.90
2022-08-25T06:24:24.855Z,24.85
2022-08-25T06:26:52.809Z,24.83
2022-08-25T06:29:21.080Z,25.08
2022-08-25T06:31:49.944Z,25.26
2022-08-25T06:34:18.321Z,25.38
2022-08-25T06:36:48.935Z,25.58
2022-08-25T06:39:18.837Z,25.83
2022-08-25T06:41:46.795Z,25.87
2022-08-25T06:44:14.719Z,25.92
2022-08-25T06:46:42.660Z,26.14
2022-08-25T06:49:11.513Z,26.27
2022-08-25T06:51:39.775Z,26.58
2022-08-25T06:54:08.387Z,26.59
2022-08-25T06:56:38.504Z,26.67
2022-08-25T06:59:07.308Z,26.74
2022-08-25T07:01:35.710Z,26.92
2022-08-25T07:04:10.348Z,27.00
2022-08-25T07:06:41.105Z,27.23
2022-08-25T07:09:10.455Z,27.44
2022-08-25T07:11:40.539Z,27.65
2022-08-25T07:14:10.939Z,27.90
2022-08-25T07:16:39.584Z,28.05
2022-08-25T07:19:09.962Z,28.14
2022-08-25T07:21:45.720Z,28.26
2022-08-25T07:24:15.097Z,28.19
2022-08-25T07:26:46.598Z,28.40
2022-08-25T07:29:17.667Z,28.58
2022-08-25T07:31:46.076Z,28.85
2022-08-25T07:34:31.604Z,29.00
2022-08-25T07:36:59.668Z,29.15
2022-08-25T07:39:29.131Z,29.23
2022-08-25T07:41:58.821Z,29.28
2022-08-25T07:44:27.858Z,29.40
2022-08-25T07:46:56.447Z,29.35
2022-08-25T07:49:25.886Z,29.56
2022-08-25T07:52:04.599Z,29.39
2022-08-25T07:54:35.447Z,29.55
2022-08-25T07:57:08.809Z,29.67
2022-08-25T07:59:39.268Z,29.73
2022-08-25T08:02:09.299Z,30.06
2022-08-25T08:04:46.314Z,30.22
2022-08-25T08:07:14.232Z,30.23
2022-08-25T08:09:42.146Z,30.30
2022-08-25T08:12:12.114Z,30.48
2022-08-25T08:14:45.055Z,30.48
2022-08-25T08:17:14.394Z,30.45
2022-08-25T08:19:45.238Z,30.69
2022-08-25T08:22:15.593Z,31.00
2022-08-25T08:24:54.865Z,30.82
2022-08-25T08:27:26.185Z,30.78
2022-08-25T08:29:54.684Z,31.08
2022-08-25T08:32:23.820Z,30.84
2022-08-25T08:34:59.479Z,31.23
2022-08-25T08:37:28.029Z,31.49
2022-08-25T08:39:56.425Z,31.64
2022-08-25T08:42:46.853Z,31.15
2022-08-25T08:45:26.399Z,31.32
2022-08-25T08:48:34.045Z,31.69
2022-08-25T08:51:09.995Z,31.74
2022-08-25T08:53:44.798Z,31.79
2022-08-25T08:56:16.914Z,31.93
2022-08-25T08:58:49.975Z,31.99
2022-08-25T09:01:23.797Z,32.32
2022-08-25T09:03:55.515Z,32.33
2022-08-25T09:06:26.191Z,32.53
2022-08-25T09:08:55.560Z,32.57
2022-08-25T09:11:31.793Z,32.60
2022-08-25T09:14:10.560Z,32.32
2022-08-25T09:16:58.783Z,32.27
2022-08-25T09:19:53.387Z,32.71
2022-08-25T09:22:35.948Z,32.70
2022-08-25T09:25:14.535Z,32.96
2022-08-25T09:27:51.634Z,32.87
2022-08-25T09:30:22.100Z,32.93
2022-08-25T09:33:02.121Z,32.82
2022-08-25T09:35:32.415Z,32.83
2022-08-25T09:38:04.975Z,33.29
2022-08-25T09:40:35.355Z,33.28
2022-08-25T09:43:05.697Z,33.18
2022-08-25T09:45:38.221Z,33.37
2022-08-25T09:48:22.045Z,33.10
2022-08-25T09:50:51.464Z,33.35
2022-08-25T09:53:21.785Z,32.86
2022-08-25T09:55:59.785Z,33.21
2022-08-25T09:58:28.310Z,33.44
2022-08-25T10:01:19.335Z,33.49
2022-08-25T10:03:59.149Z,33.65
2022-08-25T10:06:29.669Z,33.93
2022-08-25T10:09:00.794Z,33.93
2022-08-25T10:11:39.554Z,34.44
2022-08-25T10:14:18.138Z,34.34
2022-08-25T10:16:49.035Z,34.00
2022-08-25T10:19:26.522Z,33.94
2022-08-25T10:22:07.244Z,33.99
2022-08-25T10:24:37.258Z,33.81
2022-08-25T10:27:11.547Z,33.97
2022-08-25T10:29:55.519Z,34.11
2022-08-25T10:32:31.517Z,34.16
2022-08-25T10:35:00.812Z,34.31
2022-08-25T10:37:36.096Z,34.21
2022-08-25T10:40:14.068Z,34.53
2022-08-25T10:42:53.842Z,34.62
2022-08-25T10:45:40.800Z,34.72
2022-08-25T10:48:22.299Z,34.68
2022-08-25T10:50:54.109Z,34.92
2022-08-25T10:53:27.949Z,35.68
2022-08-25T10:56:07.426Z,37.05
2022-08-25T10:58:59.709Z,37.43
2022-08-25T11:01:43.702Z,37.35
2022-08-25T11:04:15.562Z,37.68
2022-08-25T11:06:52.622Z,37.68
2022-08-25T11:09:24.682Z,37.33
2022-08-25T11:11:56.890Z,37.62
2022-08-25T11:14:34.396Z,37.42
2022-08-25T11:17:06.316Z,37.89
2022-08-25T11:19:38.435Z,38.02
2022-08-25T11:22:14.053Z,38.72
2022-08-25T11:24:50.779Z,39.12
2022-08-25T11:27:22.802Z,39.14
2022-08-25T11:30:00.027Z,38.54
2022-08-25T11:32:33.280Z,37.73
2022-08-25T11:35:04.530Z,38.55
2022-08-25T11:37:33.151Z,39.39
2022-08-25T11:40:44.339Z,39.76
2022-08-25T11:43:30.066Z,39.58
2022-08-25T11:46:15.655Z,40.00
2022-08-25T11:48:52.558Z,39.44
2022-08-25T11:51:33.786Z,39.22
2022-08-25T11:54:16.766Z,39.37
2022-08-25T11:56:53.014Z,39.87
2022-08-25T11:59:54.964Z,38.94
2022-08-25T12:02:36.304Z,39.58
2022-08-25T12:05:06.975Z,41.56
2022-08-25T12:08:22.669Z,40.44
2022-08-25T12:10:57.042Z,40.01
2022-08-25T12:13:45.618Z,39.89
2022-08-25T12:16:41.853Z,40.58
2022-08-25T12:19:30.969Z,40.15
2022-08-25T12:22:38.149Z,42.00
2022-08-25T12:25:11.622Z,41.48
2022-08-25T12:27:45.155Z,40.91
2022-08-25T12:30:21.125Z,41.83
2022-08-25T12:33:00.239Z,39.58
2022-08-25T12:35:33.018Z,41.11
2022-08-25T12:38:05.227Z,40.86
2022-08-25T12:40:38.537Z,40.24
2022-08-25T12:43:12.004Z,41.81
2022-08-25T12:45:46.769Z,42.06
2022-08-25T12:48:44.362Z,40.40
2022-08-25T12:51:18.497Z,40.09
2022-08-25T12:53:49.891Z,39.93
2022-08-25T12:56:24.857Z,41.41
2022-08-25T12:59:06.914Z,41.33
2022-08-25T13:01:44.801Z,41.54
2022-08-25T13:04:49.416Z,42.16
2022-08-25T13:07:28.899Z,41.69
2022-08-25T13:10:25.574Z,42.42
2022-08-25T13:13:00.233Z,43.78
2022-08-25T13:15:35.615Z,44.68
2022-08-25T13:18:22.031Z,44.60
2022-08-25T13:20:52.601Z,45.53
2022-08-25T13:23:25.791Z,44.52
2022-08-25T13:25:55.214Z,42.68
2022-08-25T13:28:31.555Z,43.49
2022-08-25T13:31:02.389Z,44.38
2022-08-25T13:33:30.506Z,43.69
2022-08-25T13:36:16.898Z,44.01
2022-08-25T13:38:46.783Z,44.92
2022-08-25T13:41:19.791Z,42.67
2022-08-25T13:43:48.999Z,42.68
2022-08-25T13:46:20.903Z,43.92
2022-08-25T13:48:49.558Z,44.42
2022-08-25T13:51:21.522Z,42.21
2022-08-25T13:53:51.622Z,42.45
2022-08-25T13:56:32.306Z,42.25
2022-08-25T13:59:06.746Z,43.34
2022-08-25T14:01:49.489Z,42.22
2022-08-25T14:04:24.237Z,42.56
2022-08-25T14:07:08.445Z,43.10
2022-08-25T14:09:41.749Z,44.88
2022-08-25T14:12:09.697Z,43.53
2022-08-25T14:14:38.910Z,46.24
2022-08-25T14:17:22.222Z,45.56
2022-08-25T14:19:56.629Z,44.55
2022-08-25T14:22:24.553Z,44.88
2022-08-25T14:24:54.203Z,45.47
2022-08-25T14:27:22.112Z,44.63
2022-08-25T14:29:52.934Z,44.98
2022-08-25T14:32:21.032Z,44.04
2022-08-25T14:34:48.945Z,43.25
2022-08-25T14:37:19.315Z,42.97
2022-08-25T14:39:47.416Z,42.51
2022-08-25T14:42:16.774Z,41.54
2022-08-25T14:44:45.863Z,42.32
2022-08-25T14:47:15.253Z,43.60
2022-08-25T14:49:45.815Z,43.84
2022-08-25T14:52:20.246Z,43.29
2022-08-25T14:54:50.707Z,43.84
2022-08-25T14:57:19.188Z,44.02
2022-08-25T14:59:47.534Z,42.99
2022-08-25T15:02:20.099Z,42.03
2022-08-25T15:04:53.267Z,41.89
2022-08-25T15:07:39.581Z,41.33
2022-08-25T15:10:09.062Z,42.54
2022-08-25T15:12:47.690Z,42.02
2022-08-25T15:15:16.372Z,41.37
2022-08-25T15:17:49.327Z,40.40
2022-08-25T15:20:19.133Z,38.84
2022-08-25T15:22:48.115Z,39.17
2022-08-25T15:25:16.909Z,38.72
2022-08-25T15:27:46.021Z,39.09
2022-08-25T15:30:15.304Z,38.74
2022-08-25T15:32:43.250Z,38.23
2022-08-25T15:35:15.336Z,37.35
2022-08-25T15:37:43.684Z,37.31
2022-08-25T15:40:12.790Z,37.20
2022-08-25T15:42:42.995Z,36.88
2022-08-25T15:45:14.426Z,37.00
2022-08-25T15:47:42.490Z,36.74
2022-08-25T15:50:14.535Z,36.27
2022-08-25T15:52:46.514Z,36.45
2022-08-25T15:55:16.353Z,36.29
2022-08-25T15:57:44.321Z,36.34
2022-08-25T16:00:13.726Z,36.31
2022-08-25T16:02:45.409Z,36.44
2022-08-25T16:05:16.412Z,35.78
2022-08-25T16:07:45.855Z,35.67
2022-08-25T16:10:14.168Z,35.67
2022-08-25T16:12:42.687Z,35.71
2022-08-25T16:15:12.069Z,35.77
2022-08-25T16:17:43.187Z,35.13
2022-08-25T16:20:14.242Z,35.27
2022-08-25T16:22:44.777Z,35.48
2022-08-25T16:25:13.065Z,35.24
2022-08-25T16:27:41.021Z,35.22
2022-08-25T16:30:13.766Z,35.41
2022-08-25T16:32:44.852Z,35.48
2022-08-25T16:35:14.365Z,35.32
2022-08-25T16:37:42.745Z,35.39
2022-08-25T16:40:14.713Z,35.34
2022-08-25T16:42:42.899Z,35.38
2022-08-25T16:45:11.673Z,35.14
2022-08-25T16:47:39.695Z,35.23
2022-08-25T16:50:11.304Z,35.19
2022-08-25T16:52:58.150Z,35.10
2022-08-25T16:55:28.481Z,35.18
2022-08-25T16:58:07.103Z,35.53
2022-08-25T17:00:37.921Z,35.46
2022-08-25T17:03:06.674Z,35.80
2022-08-25T17:05:40.877Z,36.53
2022-08-25T17:08:24.045Z,37.22
2022-08-25T17:10:53.530Z,37.73
2022-08-25T17:13:22.033Z,38.06
2022-08-25T17:15:52.360Z,37.13
2022-08-25T17:18:20.529Z,37.50
2022-08-25T17:20:48.660Z,37.41
2022-08-25T17:23:21.154Z,37.19
2022-08-25T17:25:51.064Z,36.53
2022-08-25T17:28:19.335Z,35.70
2022-08-25T17:30:49.331Z,35.14
2022-08-25T17:33:18.089Z,35.26
2022-08-25T17:35:54.317Z,35.04
2022-08-25T17:38:26.676Z,34.77
2022-08-25T17:40:58.940Z,34.64
2022-08-25T17:43:28.191Z,34.53
2022-08-25T17:45:57.506Z,34.63
2022-08-25T17:48:26.321Z,34.25
2022-08-25T17:50:54.388Z,33.89
2022-08-25T17:53:22.298Z,33.77
2022-08-25T17:55:58.673Z,33.76
2022-08-25T17:58:27.346Z,33.56
2022-08-25T18:00:55.798Z,33.54
2022-08-25T18:03:23.737Z,33.34
2022-08-25T18:05:51.679Z,33.29
2022-08-25T18:08:19.618Z,32.94
2022-08-25T18:11:01.722Z,32.58
2022-08-25T18:13:31.226Z,32.58
2022-08-25T18:15:59.197Z,32.54
2022-08-25T18:18:27.180Z,32.35
2022-08-25T18:20:55.100Z,32.28
2022-08-25T18:23:23.156Z,32.14
2022-08-25T18:25:51.432Z,31.95
2022-08-25T18:28:29.944Z,31.89
2022-08-25T18:30:58.077Z,31.66
2022-08-25T18:33:26.062Z,31.40
2022-08-25T18:35:58.369Z,31.30
2022-08-25T18:38:43.753Z,31.09
2022-08-25T18:41:12.401Z,31.06
2022-08-25T18:43:41.721Z,30.94
2022-08-25T18:46:10.021Z,30.85
2022-08-25T18:48:38.533Z,30.81
2022-08-25T18:51:10.584Z,30.79
2022-08-25T18:53:50.518Z,30.72
2022-08-25T18:56:19.292Z,30.58
2022-08-25T18:58:48.956Z,30.48
2022-08-25T19:01:18.948Z,30.22
2022-08-25T19:03:47.085Z,30.03
2022-08-25T19:06:16.188Z,29.78
2022-08-25T19:08:45.168Z,29.68
2022-08-25T19:11:13.475Z,29.66
2022-08-25T19:13:41.655Z,29.59
2022-08-25T19:16:12.852Z,29.61
2022-08-25T19:18:42.635Z,29.61
2022-08-25T19:21:10.530Z,29.42
2022-08-25T19:23:38.976Z,29.34
2022-08-25T19:26:08.918Z,29.36
2022-08-25T19:28:48.495Z,29.33
2022-08-25T19:31:19.262Z,29.21
2022-08-25T19:33:47.424Z,29.20
2022-08-25T19:36:16.108Z,29.15
2022-08-25T19:38:45.145Z,29.04
2022-08-25T19:41:15.132Z,29.05
2022-08-25T19:43:55.406Z,29.02
2022-08-25T19:46:32.843Z,28.94
2022-08-25T19:49:08.042Z,28.87
2022-08-25T19:51:38.178Z,28.69
2022-08-25T19:54:06.625Z,28.69
2022-08-25T19:56:38.408Z,28.66
2022-08-25T19:59:12.191Z,28.59
2022-08-25T20:01:42.202Z,28.49
2022-08-25T20:04:11.506Z,28.25
2022-08-25T20:06:41.335Z,27.92
2022-08-25T20:09:35.485Z,27.74
2022-08-25T20:11:58.077Z,27.61
2022-08-25T20:14:26.055Z,27.55
2022-08-25T20:16:55.669Z,27.44
2022-08-25T20:19:23.613Z,27.45
2022-08-25T20:21:51.572Z,27.43
2022-08-25T20:24:38.841Z,27.44
2022-08-25T20:27:07.161Z,27.32
2022-08-25T20:29:35.053Z,27.29
2022-08-25T20:32:06.951Z,27.03
2022-08-25T20:34:35.037Z,27.06
2022-08-25T20:37:03.156Z,27.07
2022-08-25T20:39:31.047Z,26.98
2022-08-25T20:41:58.940Z,27.03
2022-08-25T20:44:33.686Z,26.95
2022-08-25T20:47:03.466Z,26.91
2022-08-25T20:49:37.858Z,26.82
2022-08-25T20:52:06.940Z,26.74
2022-08-25T20:54:34.975Z,26.64
2022-08-25T20:57:03.111Z,26.61
2022-08-25T20:59:33.695Z,26.79
2022-08-25T21:02:01.821Z,26.79
2022-08-25T21:04:30.452Z,26.63
2022-08-25T21:07:01.223Z,26.64
2022-08-25T21:09:29.636Z,26.61
2022-08-25T21:11:58.610Z,26.64
2022-08-25T21:14:27.209Z,26.63
2022-08-25T21:16:56.197Z,26.66
2022-08-25T21:19:30.083Z,26.72
2022-08-25T21:22:00.381Z,26.71
2022-08-25T21:24:29.115Z,26.75
2022-08-25T21:26:59.616Z,26.52
2022-08-25T21:29:29.927Z,26.32
2022-08-25T21:31:58.568Z,26.05
2022-08-25T21:34:28.741Z,25.90
2022-08-25T21:36:58.026Z,25.90
2022-08-25T21:39:29.576Z,25.98
2022-08-25T21:42:00.283Z,26.12
2022-08-25T21:44:29.050Z,26.11
2022-08-25T21:46:57.465Z,26.04
2022-08-25T21:49:25.783Z,25.92
2022-08-25T21:52:00.957Z,25.71
2022-08-25T21:54:30.952Z,25.66
2022-08-25T21:57:01.067Z,25.57
2022-08-25T21:59:30.662Z,25.58
2022-08-25T22:02:01.027Z,25.73
2022-08-25T22:04:31.877Z,25.73
2022-08-25T22:07:00.441Z,25.61
2022-08-25T22:09:30.175Z,25.48
2022-08-25T22:11:59.356Z,25.45
2022-08-25T22:14:27.761Z,25.51
2022-08-25T22:16:56.351Z,25.56
2022-08-25T22:19:24.852Z,25.54
2022-08-25T22:21:53.813Z,25.43
2022-08-25T22:24:21.910Z,25.48
2022-08-25T22:26:51.649Z,25.57
2022-08-25T22:29:24.804Z,25.57
2022-08-25T22:31:53.899Z,25.22
2022-08-25T22:34:31.909Z,25.24
2022-08-25T22:37:00.699Z,25.09
2022-08-25T22:39:28.968Z,24.99
2022-08-25T22:41:58.674Z,24.83
2022-08-25T22:44:27.089Z,24.96
2022-08-25T22:46:55.017Z,24.89
2022-08-25T22:49:23.367Z,24.93
2022-08-25T22:51:51.639Z,24.83
2022-08-25T22:54:23.107Z,24.85
2022-08-25T22:56:53.312Z,24.90
2022-08-25T22:59:22.877Z,24.85
2022-08-25T23:01:52.425Z,24.88
2022-08-25T23:04:20.685Z,24.67
2022-08-25T23:06:49.095Z,24.47
2022-08-25T23:09:17.405Z,24.52
2022-08-25T23:11:45.591Z,24.61
2022-08-25T23:14:13.846Z,24.60
2022-08-25T23:16:44.524Z,24.62
2022-08-25T23:19:14.370Z,24.61
2022-08-25T23:22:00.632Z,24.30
2022-08-25T23:24:30.099Z,24.40
2022-08-25T23:26:59.057Z,24.23
2022-08-25T23:29:27.807Z,24.10
2022-08-25T23:31:58.174Z,24.01
2022-08-25T23:34:26.793Z,24.04
2022-08-25T23:36:57.147Z,24.14
2022-08-25T23:39:25.640Z,24.10
2022-08-25T23:41:53.927Z,24.22
2022-08-25T23:44:23.297Z,24.08
2022-08-25T23:46:53.812Z,24.32
2022-08-25T23:49:25.013Z,24.18
2022-08-25T23:51:55.068Z,24.17
2022-08-25T23:54:23.077Z,24.12
2022-08-25T23:56:59.861Z,24.40
2022-08-25T23:59:29.550Z,24.51
